createdAt,value
2022-10-17T00:00:53.438Z,5.37
2022-10-17T00:03:20.105Z,5.35
2022-10-17T00:05:47.347Z,5.33
2022-10-17T00:08:14.863Z,5.33
2022-10-17T00:10:42.018Z,5.33
2022-10-17T00:13:09.148Z,5.35
2022-10-17T00:15:35.814Z,5.37
2022-10-17T00:18:02.689Z,5.38
2022-10-17T00:20:30.543Z,5.40
2022-10-17T00:22:57.363Z,5.36
2022-10-17T00:25:24.067Z,5.42
2022-10-17T00:27:50.725Z,5.43
2022-10-17T00:30:17.506Z,5.43
2022-10-17T00:32:44.198Z,5.43
2022-10-17T00:35:11.002Z,5.42
2022-10-17T00:37:37.788Z,5.40
2022-10-17T00:40:06.018Z,5.38
2022-10-17T00:42:32.735Z,5.35
2022-10-17T00:45:09.199Z,5.33
2022-10-17T00:47:36.000Z,5.30
2022-10-17T00:50:03.193Z,5.29
2022-10-17T00:52:30.483Z,5.29
2022-10-17T00:55:22.398Z,5.28
2022-10-17T00:57:49.177Z,5.27
2022-10-17T01:00:16.353Z,5.26
2022-10-17T01:02:43.115Z,5.25
2022-10-17T01:05:09.911Z,5.25
2022-10-17T01:07:37.377Z,5.25
2022-10-17T01:10:05.746Z,5.24
2022-10-17T01:13:12.635Z,5.25
2022-10-17T01:16:18.061Z,5.25
2022-10-17T01:19:03.244Z,5.26
2022-10-17T01:21:37.567Z,5.28
2022-10-17T01:24:23.142Z,5.30
2022-10-17T01:27:22.155Z,5.34
2022-10-17T01:30:30.026Z,5.38
2022-10-17T01:32:58.818Z,5.41
2022-10-17T01:35:34.075Z,5.44
2022-10-17T01:38:08.648Z,5.46
2022-10-17T01:41:14.384Z,5.48
2022-10-17T01:44:01.650Z,5.51
2022-10-17T01:46:30.318Z,5.51
2022-10-17T01:48:57.291Z,5.52
2022-10-17T01:51:33.791Z,5.52
2022-10-17T01:54:05.235Z,5.53
2022-10-17T01:56:32.111Z,5.54
2022-10-17T01:59:00.734Z,5.54
2022-10-17T02:01:29.021Z,5.54
2022-10-17T02:03:55.747Z,5.54
2022-10-17T02:06:22.395Z,5.55
2022-10-17T02:08:50.479Z,5.57
2022-10-17T02:11:23.963Z,5.60
2022-10-17T02:14:08.687Z,5.63
2022-10-17T02:16:56.446Z,5.67
2022-10-17T02:19:36.692Z,5.70
2022-10-17T02:22:14.490Z,5.72
2022-10-17T02:24:50.731Z,5.74
2022-10-17T02:27:42.283Z,5.76
2022-10-17T02:30:12.616Z,5.76
2022-10-17T02:32:50.239Z,5.75
2022-10-17T02:35:20.436Z,5.72
2022-10-17T02:37:47.148Z,5.68
2022-10-17T02:40:14.502Z,5.65
2022-10-17T02:42:41.314Z,5.62
2022-10-17T02:45:08.421Z,5.58
2022-10-17T02:47:52.484Z,5.55
2022-10-17T02:50:20.793Z,5.52
2022-10-17T02:52:54.092Z,5.51
2022-10-17T02:55:25.260Z,5.50
2022-10-17T02:57:56.914Z,5.49
2022-10-17T03:00:23.939Z,5.50
2022-10-17T03:02:51.670Z,5.49
2022-10-17T03:05:22.515Z,5.50
2022-10-17T03:07:49.203Z,5.52
2022-10-17T03:10:16.046Z,5.54
2022-10-17T03:12:42.844Z,5.56
2022-10-17T03:15:10.016Z,5.56
2022-10-17T03:17:36.777Z,5.57
2022-10-17T03:20:03.932Z,5.56
2022-10-17T03:22:31.063Z,5.57
2022-10-17T03:24:58.496Z,5.57
2022-10-17T03:27:25.437Z,5.56
2022-10-17T03:29:52.031Z,5.55
2022-10-17T03:32:19.801Z,5.54
2022-10-17T03:34:46.771Z,5.53
2022-10-17T03:37:13.555Z,5.50
2022-10-17T03:39:40.553Z,5.48
2022-10-17T03:42:07.233Z,5.46
2022-10-17T03:44:34.250Z,5.41
2022-10-17T03:47:00.925Z,5.43
2022-10-17T03:49:27.604Z,5.41
2022-10-17T03:51:54.332Z,5.40
2022-10-17T03:54:21.026Z,5.38
2022-10-17T03:56:48.032Z,5.34
2022-10-17T03:59:17.838Z,5.26
2022-10-17T04:01:49.911Z,5.16
2022-10-17T04:04:17.101Z,5.07
2022-10-17T04:06:44.631Z,5.00
2022-10-17T04:09:11.306Z,4.93
2022-10-17T04:12:00.796Z,4.86
2022-10-17T04:14:27.572Z,4.78
2022-10-17T04:16:54.294Z,4.70
2022-10-17T04:19:21.284Z,4.63
2022-10-17T04:21:49.114Z,4.56
2022-10-17T04:24:15.903Z,4.52
2022-10-17T04:26:42.541Z,4.48
2022-10-17T04:29:09.315Z,4.46
2022-10-17T04:31:36.104Z,4.44
2022-10-17T04:34:07.783Z,4.42
2022-10-17T04:36:34.562Z,4.40
2022-10-17T04:39:10.451Z,4.43
2022-10-17T04:41:38.215Z,4.45
2022-10-17T04:44:05.296Z,4.48
2022-10-17T04:46:34.114Z,4.50
2022-10-17T04:49:00.708Z,4.55
2022-10-17T04:51:27.737Z,4.60
2022-10-17T04:54:13.170Z,4.65
2022-10-17T04:56:42.106Z,4.71
2022-10-17T04:59:08.762Z,4.76
2022-10-17T05:01:37.054Z,4.81
2022-10-17T05:04:03.704Z,4.88
2022-10-17T05:06:31.547Z,4.93
2022-10-17T05:09:24.675Z,4.98
2022-10-17T05:11:51.481Z,5.04
2022-10-17T05:14:18.285Z,5.09
2022-10-17T05:16:45.085Z,5.15
2022-10-17T05:19:11.860Z,5.21
2022-10-17T05:21:43.274Z,5.26
2022-10-17T05:24:11.093Z,5.33
2022-10-17T05:26:38.362Z,5.40
2022-10-17T05:29:05.491Z,5.47
2022-10-17T05:31:34.762Z,5.54
2022-10-17T05:34:02.645Z,5.61
2022-10-17T05:36:33.680Z,5.70
2022-10-17T05:39:00.991Z,5.77
2022-10-17T05:41:27.834Z,5.84
2022-10-17T05:43:54.601Z,5.92
2022-10-17T05:46:29.629Z,6.01
2022-10-17T05:48:56.424Z,6.09
2022-10-17T05:51:23.230Z,6.17
2022-10-17T05:53:49.907Z,6.25
2022-10-17T05:56:21.729Z,6.31
2022-10-17T05:58:50.931Z,6.37
2022-10-17T06:01:40.534Z,6.45
2022-10-17T06:04:07.423Z,6.51
2022-10-17T06:06:36.747Z,6.58
2022-10-17T06:09:03.967Z,6.65
2022-10-17T06:11:34.227Z,6.72
2022-10-17T06:14:01.091Z,6.79
2022-10-17T06:16:28.931Z,6.86
2022-10-17T06:18:55.604Z,6.93
2022-10-17T06:21:25.332Z,7.00
2022-10-17T06:23:55.642Z,7.07
2022-10-17T06:26:28.783Z,7.15
2022-10-17T06:28:55.949Z,7.24
2022-10-17T06:31:23.031Z,7.31
2022-10-17T06:33:50.473Z,7.38
2022-10-17T06:36:17.766Z,7.46
2022-10-17T06:38:45.216Z,7.55
2022-10-17T06:41:34.759Z,7.65
2022-10-17T06:44:10.936Z,7.75
2022-10-17T06:46:56.368Z,7.87
2022-10-17T06:49:23.215Z,7.96
2022-10-17T06:52:10.510Z,8.08
2022-10-17T06:54:51.964Z,8.19
2022-10-17T07:00:30.168Z,8.45
2022-10-17T07:02:57.396Z,8.54
2022-10-17T07:05:24.160Z,8.63
2022-10-17T07:07:51.848Z,8.72
2022-10-17T07:10:19.011Z,8.80
2022-10-17T07:12:45.917Z,8.86
2022-10-17T07:15:12.823Z,8.96
2022-10-17T07:17:39.501Z,9.06
2022-10-17T07:20:06.990Z,9.14
2022-10-17T07:22:35.039Z,9.23
2022-10-17T07:25:02.024Z,9.32
2022-10-17T07:27:37.232Z,9.42
2022-10-17T07:30:04.765Z,9.51
2022-10-17T07:32:54.506Z,9.61
2022-10-17T07:35:21.578Z,9.69
2022-10-17T07:37:48.319Z,9.78
2022-10-17T07:40:17.452Z,9.84
2022-10-17T07:42:44.636Z,9.92
2022-10-17T07:45:12.152Z,10.05
2022-10-17T07:47:38.894Z,10.12
2022-10-17T07:50:08.243Z,10.21
2022-10-17T07:52:35.023Z,10.29
2022-10-17T07:55:01.619Z,10.38
2022-10-17T07:57:28.363Z,10.47
2022-10-17T07:59:55.010Z,10.56
2022-10-17T08:02:23.967Z,10.62
2022-10-17T08:04:51.386Z,10.69
2022-10-17T08:07:22.126Z,10.77
2022-10-17T08:09:52.112Z,10.86
2022-10-17T08:12:18.993Z,10.95
2022-10-17T08:14:45.748Z,11.05
2022-10-17T08:17:12.390Z,11.14
2022-10-17T08:19:40.388Z,11.22
2022-10-17T08:22:07.359Z,11.30
2022-10-17T08:24:34.081Z,11.37
2022-10-17T08:27:01.023Z,11.43
2022-10-17T08:29:27.831Z,11.50
2022-10-17T08:31:58.623Z,11.57
2022-10-17T08:34:28.422Z,11.63
2022-10-17T08:36:57.179Z,11.68
2022-10-17T08:39:23.798Z,11.73
2022-10-17T08:42:38.736Z,11.79
2022-10-17T08:45:17.477Z,11.88
2022-10-17T08:47:48.799Z,11.94
2022-10-17T08:50:28.104Z,12.00
2022-10-17T08:52:57.532Z,12.05
2022-10-17T08:55:42.794Z,12.11
2022-10-17T08:58:22.011Z,12.16
2022-10-17T09:01:13.733Z,12.21
2022-10-17T09:04:06.638Z,12.27
2022-10-17T09:06:37.499Z,12.33
2022-10-17T09:09:12.965Z,12.39
2022-10-17T09:12:20.615Z,12.45
2022-10-17T09:14:54.039Z,12.51
2022-10-17T09:17:34.967Z,12.56
2022-10-17T09:20:11.796Z,12.61
2022-10-17T09:22:42.631Z,12.66
2022-10-17T09:25:14.010Z,12.71
2022-10-17T09:27:42.923Z,12.77
2022-10-17T09:30:40.156Z,12.82
2022-10-17T09:33:28.126Z,12.87
2022-10-17T09:36:01.214Z,12.94
2022-10-17T09:38:35.228Z,12.96
2022-10-17T09:41:01.957Z,13.00
2022-10-17T09:43:28.727Z,13.04
2022-10-17T09:46:09.372Z,13.10
2022-10-17T09:48:40.240Z,13.17
2022-10-17T09:51:22.068Z,13.22
2022-10-17T09:53:55.947Z,13.28
2022-10-17T09:56:22.704Z,13.32
2022-10-17T09:58:52.930Z,13.38
2022-10-17T10:01:28.458Z,13.44
2022-10-17T10:04:13.758Z,13.49
2022-10-17T10:06:40.984Z,13.54
2022-10-17T10:11:54.867Z,13.64
2022-10-17T10:14:35.672Z,13.68
2022-10-17T10:17:07.046Z,13.74
2022-10-17T10:19:35.982Z,13.79
2022-10-17T10:22:04.404Z,13.83
2022-10-17T10:24:31.388Z,13.87
2022-10-17T10:27:07.231Z,13.91
2022-10-17T10:29:35.725Z,13.96
2022-10-17T10:32:12.345Z,14.01
2022-10-17T10:34:45.418Z,14.04
2022-10-17T10:37:18.475Z,14.08
2022-10-17T10:39:56.327Z,14.11
2022-10-17T10:42:37.351Z,14.12
2022-10-17T10:45:46.899Z,14.16
2022-10-17T10:48:25.329Z,14.20
2022-10-17T10:51:05.157Z,14.22
2022-10-17T10:53:49.955Z,14.26
2022-10-17T10:56:21.690Z,14.30
2022-10-17T10:58:55.109Z,14.32
2022-10-17T11:01:29.983Z,14.33
2022-10-17T11:04:34.368Z,14.34
2022-10-17T11:07:04.928Z,14.36
2022-10-17T11:09:43.687Z,14.39
2022-10-17T11:12:15.069Z,14.40
2022-10-17T11:15:08.051Z,14.42
2022-10-17T11:17:48.264Z,14.45
2022-10-17T11:20:20.103Z,14.49
2022-10-17T11:22:48.231Z,14.54
2022-10-17T11:25:33.486Z,14.56
2022-10-17T11:28:04.649Z,14.61
2022-10-17T11:30:56.539Z,14.65
2022-10-17T11:33:44.457Z,14.68
2022-10-17T11:36:11.263Z,14.69
2022-10-17T11:38:43.691Z,14.72
2022-10-17T11:41:17.358Z,14.75
2022-10-17T11:44:04.290Z,14.78
2022-10-17T11:46:30.980Z,14.81
2022-10-17T11:49:02.400Z,14.83
2022-10-17T11:54:30.374Z,14.89
2022-10-17T11:57:14.064Z,14.90
2022-10-17T11:59:47.231Z,14.92
2022-10-17T12:02:32.431Z,14.95
2022-10-17T12:05:12.044Z,14.98
2022-10-17T12:07:50.981Z,15.00
2022-10-17T12:10:39.650Z,15.03
2022-10-17T12:13:28.562Z,15.05
2022-10-17T12:15:56.038Z,15.06
2022-10-17T12:18:27.380Z,15.07
2022-10-17T12:21:00.414Z,15.08
2022-10-17T12:23:30.985Z,15.11
2022-10-17T12:26:04.778Z,15.12
2022-10-17T12:28:33.242Z,15.13
2022-10-17T12:31:08.756Z,15.15
2022-10-17T12:33:55.350Z,15.15
2022-10-17T12:36:22.056Z,15.16
2022-10-17T12:39:01.469Z,15.16
2022-10-17T12:41:40.589Z,15.16
2022-10-17T12:44:13.024Z,15.16
2022-10-17T12:46:58.642Z,15.17
2022-10-17T12:49:45.506Z,15.18
2022-10-17T12:52:27.494Z,15.19
2022-10-17T12:55:12.658Z,15.19
2022-10-17T12:58:02.936Z,15.20
2022-10-17T13:00:49.693Z,15.20
2022-10-17T13:03:28.569Z,15.19
2022-10-17T13:05:57.595Z,15.20
2022-10-17T13:08:35.922Z,15.21
2022-10-17T13:11:02.883Z,15.20
2022-10-17T13:13:42.710Z,15.20
2022-10-17T13:16:09.604Z,15.18
2022-10-17T13:18:36.389Z,15.18
2022-10-17T13:21:05.618Z,15.18
2022-10-17T13:23:36.758Z,15.17
2022-10-17T13:26:06.335Z,15.17
2022-10-17T13:28:35.911Z,15.17
2022-10-17T13:31:05.938Z,15.18
2022-10-17T13:33:35.359Z,15.19
2022-10-17T13:36:03.072Z,15.19
2022-10-17T13:38:32.457Z,15.19
2022-10-17T13:41:06.148Z,15.19
2022-10-17T13:43:43.511Z,15.17
2022-10-17T13:46:37.535Z,15.16
2022-10-17T13:49:34.756Z,15.14
2022-10-17T13:52:02.505Z,15.12
2022-10-17T13:54:31.984Z,15.09
2022-10-17T13:56:59.012Z,15.05
2022-10-17T13:59:47.880Z,15.02
2022-10-17T14:02:26.773Z,15.00
2022-10-17T14:05:18.376Z,14.99
2022-10-17T14:10:41.638Z,14.95
2022-10-17T14:13:08.336Z,14.92
2022-10-17T14:15:35.865Z,14.89
2022-10-17T14:18:07.728Z,14.85
2022-10-17T14:23:33.276Z,14.78
2022-10-17T14:26:18.093Z,14.74
2022-10-17T14:28:47.130Z,14.70
2022-10-17T14:31:30.202Z,14.66
2022-10-17T14:33:56.937Z,14.62
2022-10-17T14:36:37.906Z,14.58
2022-10-17T14:39:14.112Z,14.54
2022-10-17T14:41:43.984Z,14.49
2022-10-17T14:44:20.662Z,14.45
2022-10-17T14:46:50.746Z,14.39
2022-10-17T14:49:39.658Z,14.34
2022-10-17T14:52:18.273Z,14.28
2022-10-17T14:54:55.870Z,14.21
2022-10-17T14:57:26.180Z,14.13
2022-10-17T14:59:55.739Z,14.05
2022-10-17T15:02:28.437Z,13.97
2022-10-17T15:04:55.453Z,13.88
2022-10-17T15:07:22.323Z,13.79
2022-10-17T15:09:49.903Z,13.70
2022-10-17T15:12:18.526Z,13.61
2022-10-17T15:14:45.442Z,13.52
2022-10-17T15:17:18.482Z,13.40
2022-10-17T15:19:45.197Z,13.35
2022-10-17T15:22:11.907Z,13.28
2022-10-17T15:24:38.718Z,13.21
2022-10-17T15:27:19.101Z,13.13
2022-10-17T15:29:45.900Z,13.05
2022-10-17T15:32:12.675Z,12.94
2022-10-17T15:34:39.366Z,12.84
2022-10-17T15:37:06.459Z,12.72
2022-10-17T15:39:33.409Z,12.58
2022-10-17T15:42:00.361Z,12.42
2022-10-17T15:44:27.234Z,12.25
2022-10-17T15:46:53.844Z,12.12
2022-10-17T15:49:20.580Z,11.97
2022-10-17T15:51:50.306Z,11.83
2022-10-17T15:54:18.351Z,11.69
2022-10-17T15:56:48.947Z,11.55
2022-10-17T15:59:17.916Z,11.42
2022-10-17T16:01:44.695Z,11.28
2022-10-17T16:04:12.865Z,11.17
2022-10-17T16:06:39.568Z,11.06
2022-10-17T16:09:06.233Z,10.93
2022-10-17T16:11:36.615Z,10.83
2022-10-17T16:14:05.604Z,10.72
2022-10-17T16:16:32.322Z,10.62
2022-10-17T16:18:59.032Z,10.55
2022-10-17T16:21:26.577Z,10.49
2022-10-17T16:23:53.468Z,10.44
2022-10-17T16:26:20.394Z,10.39
2022-10-17T16:28:47.214Z,10.36
2022-10-17T16:31:23.902Z,10.34
2022-10-17T16:33:51.678Z,10.31
2022-10-17T16:36:18.598Z,10.29
2022-10-17T16:38:45.789Z,10.27
2022-10-17T16:41:32.080Z,10.26
2022-10-17T16:44:01.095Z,10.26
2022-10-17T16:46:28.819Z,10.27
2022-10-17T16:48:55.619Z,10.29
2022-10-17T16:51:22.264Z,10.32
2022-10-17T16:53:52.763Z,10.33
2022-10-17T16:56:20.866Z,10.35
2022-10-17T16:58:47.802Z,10.36
2022-10-17T17:01:19.756Z,10.36
2022-10-17T17:03:47.853Z,10.39
2022-10-17T17:06:22.724Z,10.40
2022-10-17T17:08:49.414Z,10.40
2022-10-17T17:11:17.430Z,10.40
2022-10-17T17:13:44.252Z,10.39
2022-10-17T17:16:12.225Z,10.39
2022-10-17T17:18:38.817Z,10.39
2022-10-17T17:21:06.898Z,10.37
2022-10-17T17:23:36.591Z,10.36
2022-10-17T17:26:09.310Z,10.36
2022-10-17T17:28:36.606Z,10.36
2022-10-17T17:31:06.663Z,10.36
2022-10-17T17:33:33.790Z,10.35
2022-10-17T17:36:01.742Z,10.35
2022-10-17T17:38:29.181Z,10.34
2022-10-17T17:40:55.894Z,10.34
2022-10-17T17:43:22.546Z,10.33
2022-10-17T17:45:49.267Z,10.33
2022-10-17T17:48:15.970Z,10.32
2022-10-17T17:50:42.677Z,10.31
2022-10-17T17:53:09.880Z,10.29
2022-10-17T17:55:36.565Z,10.28
2022-10-17T17:58:03.596Z,10.27
2022-10-17T18:00:30.561Z,10.26
2022-10-17T18:02:57.397Z,10.26
2022-10-17T18:05:24.084Z,10.27
2022-10-17T18:07:50.770Z,10.27
2022-10-17T18:10:17.468Z,10.28
2022-10-17T18:12:44.163Z,10.28
2022-10-17T18:15:11.220Z,10.29
2022-10-17T18:17:38.002Z,10.28
2022-10-17T18:20:05.334Z,10.27
2022-10-17T18:22:32.332Z,10.26
2022-10-17T18:24:59.466Z,10.25
2022-10-17T18:27:26.691Z,10.24
2022-10-17T18:29:53.602Z,10.21
2022-10-17T18:32:20.819Z,10.22
2022-10-17T18:34:47.524Z,10.22
2022-10-17T18:37:14.216Z,10.21
2022-10-17T18:39:40.928Z,10.19
2022-10-17T18:42:07.601Z,10.17
2022-10-17T18:44:34.537Z,10.11
2022-10-17T18:47:04.107Z,10.11
2022-10-17T18:49:31.421Z,10.10
2022-10-17T18:51:59.506Z,10.10
2022-10-17T18:54:26.273Z,10.10
2022-10-17T18:56:53.375Z,10.10
2022-10-17T18:59:20.479Z,10.09
2022-10-17T19:01:47.394Z,10.08
2022-10-17T19:04:14.251Z,10.07
2022-10-17T19:06:40.887Z,10.05
2022-10-17T19:09:10.237Z,10.00
2022-10-17T19:11:37.566Z,9.95
2022-10-17T19:14:08.202Z,9.92
2022-10-17T19:17:22.726Z,9.89
2022-10-17T19:19:51.928Z,9.82
2022-10-17T19:22:18.713Z,9.77
2022-10-17T19:24:45.319Z,9.69
2022-10-17T19:27:12.262Z,9.61
2022-10-17T19:29:43.539Z,9.51
2022-10-17T19:32:15.723Z,9.42
2022-10-17T19:34:44.887Z,9.32
2022-10-17T19:37:11.651Z,9.25
2022-10-17T19:39:38.252Z,9.14
2022-10-17T19:42:06.864Z,9.10
2022-10-17T19:44:34.787Z,9.04
2022-10-17T19:47:01.419Z,9.01
2022-10-17T19:49:28.348Z,8.98
2022-10-17T19:51:55.019Z,8.97
2022-10-17T19:54:21.675Z,8.95
2022-10-17T19:56:48.375Z,8.95
2022-10-17T19:59:16.097Z,8.96
2022-10-17T20:01:43.174Z,8.96
2022-10-17T20:04:10.961Z,8.97
2022-10-17T20:06:38.205Z,8.99
2022-10-17T20:09:05.510Z,9.01
2022-10-17T20:11:32.328Z,9.01
2022-10-17T20:13:59.467Z,9.00
2022-10-17T20:16:28.105Z,8.99
2022-10-17T20:18:56.010Z,8.98
2022-10-17T20:21:27.230Z,8.96
2022-10-17T20:23:54.249Z,8.94
2022-10-17T20:26:37.466Z,8.92
2022-10-17T20:29:08.918Z,8.89
2022-10-17T20:31:35.738Z,8.85
2022-10-17T20:34:02.461Z,8.82
2022-10-17T20:36:29.093Z,8.79
2022-10-17T20:38:56.631Z,8.76
2022-10-17T20:41:23.763Z,8.73
2022-10-17T20:43:51.531Z,8.70
2022-10-17T20:46:34.993Z,8.67
2022-10-17T20:49:02.482Z,8.65
2022-10-17T20:51:29.200Z,8.62
2022-10-17T20:56:28.442Z,8.56
2022-10-17T20:59:05.803Z,8.53
2022-10-17T21:01:32.948Z,8.50
2022-10-17T21:04:10.471Z,8.44
2022-10-17T21:06:37.559Z,8.40
2022-10-17T21:09:04.838Z,8.37
2022-10-17T21:11:31.532Z,8.35
2022-10-17T21:14:00.197Z,8.34
2022-10-17T21:16:27.351Z,8.31
2022-10-17T21:18:54.813Z,8.30
2022-10-17T21:21:24.684Z,8.25
2022-10-17T21:23:51.515Z,8.27
2022-10-17T21:26:18.397Z,8.26
2022-10-17T21:28:45.960Z,8.27
2022-10-17T21:31:19.087Z,8.26
2022-10-17T21:33:47.698Z,8.26
2022-10-17T21:36:16.820Z,8.26
2022-10-17T21:38:44.350Z,8.28
2022-10-17T21:41:11.391Z,8.29
2022-10-17T21:43:38.343Z,8.30
2022-10-17T21:46:15.352Z,8.31
2022-10-17T21:48:42.590Z,8.32
2022-10-17T21:51:10.952Z,8.33
2022-10-17T21:53:37.759Z,8.34
2022-10-17T21:56:06.166Z,8.33
2022-10-17T21:58:33.236Z,8.32
2022-10-17T22:01:05.455Z,8.31
2022-10-17T22:03:36.767Z,8.30
2022-10-17T22:06:13.048Z,8.29
2022-10-17T22:08:51.033Z,8.29
2022-10-17T22:11:18.783Z,8.27
2022-10-17T22:13:45.537Z,8.21
2022-10-17T22:16:12.925Z,8.16
2022-10-17T22:18:39.596Z,8.09
2022-10-17T22:21:09.067Z,8.07
2022-10-17T22:23:36.091Z,8.08
2022-10-17T22:26:02.825Z,8.07
2022-10-17T22:28:29.546Z,8.05
2022-10-17T22:30:56.178Z,8.03
2022-10-17T22:33:22.867Z,8.04
2022-10-17T22:35:49.756Z,8.04
2022-10-17T22:38:16.377Z,8.06
2022-10-17T22:40:46.563Z,8.08
2022-10-17T22:43:13.368Z,8.07
2022-10-17T22:45:40.075Z,8.07
2022-10-17T22:48:06.958Z,8.07
2022-10-17T22:50:33.627Z,8.04
2022-10-17T22:53:00.496Z,8.01
2022-10-17T22:55:27.099Z,7.98
2022-10-17T22:57:53.804Z,7.95
2022-10-17T23:00:20.690Z,7.90
2022-10-17T23:02:47.395Z,7.86
2022-10-17T23:05:14.053Z,7.84
2022-10-17T23:07:40.749Z,7.82
2022-10-17T23:10:07.687Z,7.79
2022-10-17T23:12:34.355Z,7.78
2022-10-17T23:15:01.147Z,7.77
2022-10-17T23:17:27.751Z,7.78
2022-10-17T23:19:57.009Z,7.79
2022-10-17T23:22:24.483Z,7.80
2022-10-17T23:24:51.242Z,7.82
2022-10-17T23:27:17.847Z,7.83
2022-10-17T23:29:44.545Z,7.84
2022-10-17T23:32:11.364Z,7.84
2022-10-17T23:34:37.959Z,7.84
2022-10-17T23:37:04.680Z,7.83
2022-10-17T23:39:31.349Z,7.79
2022-10-17T23:41:58.054Z,7.77
2022-10-17T23:44:24.960Z,7.75
2022-10-17T23:46:51.698Z,7.70
2022-10-17T23:49:18.349Z,7.65
2022-10-17T23:51:45.076Z,7.60
2022-10-17T23:54:11.695Z,7.56
2022-10-17T23:56:38.338Z,7.52
2022-10-17T23:59:05.027Z,7.47
